createdAt,value
2022-08-19T00:00:07.176Z,97.74
2022-08-19T00:01:07.161Z,97.84
2022-08-19T00:02:07.140Z,98.04
2022-08-19T00:03:07.133Z,98.14
2022-08-19T00:04:07.147Z,98.24
2022-08-19T00:05:07.152Z,98.39
2022-08-19T00:06:07.102Z,98.39
2022-08-19T00:07:07.100Z,98.39
2022-08-19T00:08:07.085Z,98.39
2022-08-19T00:09:07.086Z,98.39
2022-08-19T00:10:07.052Z,98.29
2022-08-19T00:11:07.056Z,98.49
2022-08-19T00:12:07.032Z,98.49
2022-08-19T00:13:07.025Z,98.59
2022-08-19T00:14:07.025Z,98.69
2022-08-19T00:15:07.012Z,98.90
2022-08-19T00:16:07.985Z,98.99
2022-08-19T00:17:06.997Z,99.19
2022-08-19T00:18:06.965Z,99.50
2022-08-19T00:19:06.978Z,99.70
2022-08-19T00:20:06.974Z,99.50
2022-08-19T00:21:06.945Z,99.50
2022-08-19T00:22:06.930Z,99.40
2022-08-19T00:23:06.925Z,99.30
2022-08-19T00:24:06.917Z,99.30
2022-08-19T00:25:06.897Z,99.34
2022-08-19T00:26:06.885Z,99.34
2022-08-19T00:27:26.009Z,99.24
2022-08-19T00:28:07.868Z,99.34
2022-08-19T00:29:06.848Z,99.44
2022-08-19T00:30:06.859Z,99.44
2022-08-19T00:31:07.050Z,99.65
2022-08-19T00:32:06.817Z,99.65
2022-08-19T00:33:06.824Z,99.65
2022-08-19T00:34:06.793Z,99.85
2022-08-19T00:35:06.813Z,99.85
2022-08-19T00:36:06.768Z,99.99
2022-08-19T00:37:06.768Z,99.99
2022-08-19T00:38:06.761Z,99.99
2022-08-19T00:39:06.749Z,99.99
2022-08-19T00:40:06.783Z,99.99
2022-08-19T00:41:06.754Z,99.99
2022-08-19T00:42:06.709Z,99.99
2022-08-19T00:43:06.713Z,99.99
2022-08-19T00:44:06.684Z,99.95
2022-08-19T00:45:06.701Z,99.95
2022-08-19T00:46:06.654Z,99.99
2022-08-19T00:47:06.650Z,99.99
2022-08-19T00:48:13.449Z,99.99
2022-08-19T00:49:07.633Z,99.99
2022-08-19T00:50:06.733Z,99.99
2022-08-19T00:51:06.641Z,99.99
2022-08-19T00:52:06.634Z,99.99
2022-08-19T00:53:06.681Z,99.99
2022-08-19T00:54:06.693Z,99.99
2022-08-19T00:55:06.725Z,99.99
2022-08-19T00:56:06.762Z,99.99
2022-08-19T00:57:06.753Z,99.99
2022-08-19T00:58:06.793Z,99.99
2022-08-19T00:59:06.834Z,99.99
2022-08-19T01:00:06.874Z,99.99
2022-08-19T01:01:06.853Z,99.99
2022-08-19T01:02:06.489Z,99.99
2022-08-19T01:03:06.514Z,99.99
2022-08-19T01:04:06.466Z,99.99
2022-08-19T01:05:06.454Z,99.99
2022-08-19T01:06:06.485Z,99.99
2022-08-19T01:07:06.454Z,99.99
2022-08-19T01:08:06.441Z,99.99
2022-08-19T01:09:06.417Z,99.99
2022-08-19T01:10:06.385Z,99.99
2022-08-19T01:11:06.707Z,99.99
2022-08-19T01:12:06.369Z,99.99
2022-08-19T01:13:06.368Z,99.99
2022-08-19T01:14:06.346Z,99.99
2022-08-19T01:15:06.347Z,99.99
2022-08-19T01:16:06.328Z,99.99
2022-08-19T01:17:06.338Z,99.99
2022-08-19T01:18:06.298Z,99.99
2022-08-19T01:19:06.318Z,99.99
2022-08-19T01:20:06.298Z,99.99
2022-08-19T01:21:06.289Z,99.99
2022-08-19T01:22:14.347Z,99.99
2022-08-19T01:23:07.591Z,99.99
2022-08-19T01:24:06.238Z,99.99
2022-08-19T01:25:12.862Z,99.99
2022-08-19T01:26:07.226Z,99.99
2022-08-19T01:27:06.209Z,99.99
2022-08-19T01:28:09.883Z,99.99
2022-08-19T01:29:07.190Z,99.99
2022-08-19T01:30:06.215Z,99.99
2022-08-19T01:31:07.104Z,99.99
2022-08-19T01:32:06.167Z,99.99
2022-08-19T01:33:06.138Z,99.99
2022-08-19T01:34:06.143Z,99.99
2022-08-19T01:35:06.125Z,99.99
2022-08-19T01:36:06.090Z,99.99
2022-08-19T01:37:06.122Z,99.99
2022-08-19T01:38:06.079Z,99.99
2022-08-19T01:39:06.071Z,99.99
2022-08-19T01:40:09.335Z,99.99
2022-08-19T01:41:10.778Z,99.99
2022-08-19T01:42:07.077Z,99.99
2022-08-19T01:43:06.042Z,99.99
2022-08-19T01:44:17.610Z,99.99
2022-08-19T01:45:07.015Z,99.99
2022-08-19T01:46:06.061Z,99.99
2022-08-19T01:47:05.982Z,99.99
2022-08-19T01:48:05.984Z,99.99
2022-08-19T01:49:06.112Z,99.99
2022-08-19T01:50:05.942Z,99.99
2022-08-19T01:51:06.057Z,99.99
2022-08-19T01:52:05.970Z,99.99
2022-08-19T01:53:07.835Z,99.99
2022-08-19T01:54:06.056Z,99.99
2022-08-19T01:55:06.024Z,99.99
2022-08-19T01:56:06.055Z,99.99
2022-08-19T01:57:06.035Z,99.99
2022-08-19T01:58:06.077Z,99.99
2022-08-19T01:59:06.163Z,99.99
2022-08-19T02:00:06.051Z,99.99
2022-08-19T02:01:06.185Z,99.99
2022-08-19T02:02:06.077Z,99.99
2022-08-19T02:03:06.195Z,99.99
2022-08-19T02:04:06.082Z,99.99
2022-08-19T02:05:06.107Z,99.99
2022-08-19T02:06:06.167Z,99.99
2022-08-19T02:07:06.114Z,99.99
2022-08-19T02:08:06.319Z,99.99
2022-08-19T02:09:05.847Z,99.99
2022-08-19T02:10:06.634Z,99.99
2022-08-19T02:11:06.735Z,99.99
2022-08-19T02:12:06.027Z,99.99
2022-08-19T02:13:05.884Z,99.99
2022-08-19T02:14:05.998Z,99.99
2022-08-19T02:15:06.030Z,99.99
2022-08-19T02:16:05.670Z,99.99
2022-08-19T02:17:05.676Z,99.99
2022-08-19T02:18:05.677Z,99.99
2022-08-19T02:19:05.656Z,99.99
2022-08-19T02:20:05.607Z,99.99
2022-08-19T02:21:05.621Z,99.99
2022-08-19T02:22:05.587Z,99.99
2022-08-19T02:23:05.590Z,99.99
2022-08-19T02:24:06.586Z,99.99
2022-08-19T02:25:05.567Z,99.99
2022-08-19T02:26:05.546Z,99.99
2022-08-19T02:27:05.547Z,99.99
2022-08-19T02:28:05.523Z,99.99
2022-08-19T02:29:05.680Z,99.99
2022-08-19T02:30:05.511Z,99.99
2022-08-19T02:31:05.500Z,99.99
2022-08-19T02:32:05.480Z,99.99
2022-08-19T02:33:05.479Z,99.99
2022-08-19T02:34:05.451Z,99.99
2022-08-19T02:35:12.456Z,99.99
2022-08-19T02:36:06.435Z,99.99
2022-08-19T02:37:05.499Z,99.99
2022-08-19T02:38:05.499Z,99.99
2022-08-19T02:39:05.545Z,99.99
2022-08-19T02:40:12.119Z,99.99
2022-08-19T02:41:06.420Z,99.99
2022-08-19T02:42:05.521Z,99.99
2022-08-19T02:43:05.484Z,99.99
2022-08-19T02:44:29.716Z,99.99
2022-08-19T02:45:06.472Z,99.99
2022-08-19T02:46:05.323Z,99.99
2022-08-19T02:47:05.767Z,99.99
2022-08-19T02:48:05.396Z,99.99
2022-08-19T02:49:06.291Z,99.99
2022-08-19T02:50:05.279Z,99.99
2022-08-19T02:51:05.275Z,99.99
2022-08-19T02:52:05.274Z,99.99
2022-08-19T02:53:05.264Z,99.99
2022-08-19T02:54:05.235Z,99.99
2022-08-19T02:55:05.236Z,99.99
2022-08-19T02:56:05.215Z,99.99
2022-08-19T02:57:05.234Z,99.99
2022-08-19T02:58:05.216Z,99.99
2022-08-19T02:59:05.191Z,99.99
2022-08-19T03:00:05.176Z,99.99
2022-08-19T03:01:05.258Z,99.99
2022-08-19T03:02:05.155Z,99.99
2022-08-19T03:03:05.147Z,99.99
2022-08-19T03:04:05.143Z,99.99
2022-08-19T03:05:05.115Z,99.99
2022-08-19T03:06:05.108Z,99.99
2022-08-19T03:07:10.750Z,99.99
2022-08-19T03:08:06.260Z,99.99
2022-08-19T03:09:05.063Z,99.99
2022-08-19T03:10:05.063Z,99.99
2022-08-19T03:11:05.047Z,99.99
2022-08-19T03:12:05.048Z,99.99
2022-08-19T03:13:05.068Z,99.99
2022-08-19T03:14:05.020Z,99.99
2022-08-19T03:15:05.011Z,99.99
2022-08-19T03:16:04.999Z,99.99
2022-08-19T03:17:04.976Z,99.99
2022-08-19T03:18:04.976Z,99.99
2022-08-19T03:19:04.979Z,99.99
2022-08-19T03:20:04.973Z,99.99
2022-08-19T03:21:04.937Z,99.99
2022-08-19T03:22:04.939Z,99.99
2022-08-19T03:23:04.907Z,99.99
2022-08-19T03:24:04.930Z,99.99
2022-08-19T03:25:04.887Z,99.99
2022-08-19T03:26:16.459Z,99.99
2022-08-19T03:27:05.868Z,99.99
2022-08-19T03:28:04.880Z,99.99
2022-08-19T03:29:05.655Z,99.99
2022-08-19T03:30:04.854Z,99.99
2022-08-19T03:31:04.841Z,99.99
2022-08-19T03:32:05.825Z,99.99
2022-08-19T03:33:05.487Z,99.99
2022-08-19T03:34:04.808Z,99.99
2022-08-19T03:35:04.785Z,99.99
2022-08-19T03:36:04.780Z,99.99
2022-08-19T03:37:04.760Z,99.99
2022-08-19T03:38:04.748Z,99.99
2022-08-19T03:39:04.745Z,99.99
2022-08-19T03:40:04.783Z,99.99
2022-08-19T03:41:04.712Z,99.99
2022-08-19T03:42:32.263Z,99.99
2022-08-19T03:43:05.704Z,99.99
2022-08-19T03:44:04.720Z,99.99
2022-08-19T03:45:04.692Z,99.99
2022-08-19T03:46:04.691Z,99.99
2022-08-19T03:47:04.652Z,99.99
2022-08-19T03:48:04.644Z,99.99
2022-08-19T03:49:04.644Z,99.99
2022-08-19T03:50:04.644Z,99.99
2022-08-19T03:51:04.604Z,99.99
2022-08-19T03:52:04.595Z,99.99
2022-08-19T03:53:04.592Z,99.99
2022-08-19T03:54:04.584Z,99.99
2022-08-19T03:55:04.630Z,99.99
2022-08-19T03:56:04.552Z,99.99
2022-08-19T03:57:04.548Z,99.99
2022-08-19T03:58:04.636Z,99.99
2022-08-19T03:59:04.558Z,99.99
2022-08-19T04:00:13.590Z,99.99
2022-08-19T04:01:05.526Z,99.99
2022-08-19T04:02:04.560Z,99.99
2022-08-19T04:03:04.476Z,99.99
2022-08-19T04:04:04.798Z,99.99
2022-08-19T04:05:04.456Z,99.99
2022-08-19T04:06:04.436Z,99.99
2022-08-19T04:07:04.437Z,99.99
2022-08-19T04:08:04.424Z,99.99
2022-08-19T04:09:04.407Z,99.99
2022-08-19T04:10:04.438Z,99.99
2022-08-19T04:11:04.375Z,99.99
2022-08-19T04:12:04.388Z,99.99
2022-08-19T04:13:04.368Z,99.99
2022-08-19T04:14:04.444Z,99.99
2022-08-19T04:15:04.350Z,99.99
2022-08-19T04:16:04.328Z,99.99
2022-08-19T04:17:04.320Z,99.99
2022-08-19T04:18:04.338Z,99.99
2022-08-19T04:19:04.289Z,99.99
2022-08-19T04:20:07.019Z,99.99
2022-08-19T04:21:04.269Z,99.99
2022-08-19T04:22:04.269Z,99.99
2022-08-19T04:23:04.259Z,99.99
2022-08-19T04:24:04.258Z,99.99
2022-08-19T04:25:04.226Z,99.99
2022-08-19T04:26:04.246Z,99.99
2022-08-19T04:27:04.209Z,99.99
2022-08-19T04:28:04.201Z,99.99
2022-08-19T04:29:04.177Z,99.99
2022-08-19T04:30:04.187Z,99.99
2022-08-19T04:31:04.161Z,99.99
2022-08-19T04:32:09.107Z,99.99
2022-08-19T04:33:05.133Z,99.99
2022-08-19T04:34:04.121Z,99.99
2022-08-19T04:35:17.536Z,99.99
2022-08-19T04:36:05.117Z,99.99
2022-08-19T04:37:04.081Z,99.99
2022-08-19T04:38:04.109Z,99.99
2022-08-19T04:39:04.072Z,99.99
2022-08-19T04:40:04.112Z,99.99
2022-08-19T04:41:04.057Z,99.99
2022-08-19T04:42:04.058Z,99.99
2022-08-19T04:43:04.025Z,99.99
2022-08-19T04:44:04.643Z,99.99
2022-08-19T04:45:03.994Z,99.99
2022-08-19T04:46:03.992Z,99.99
2022-08-19T04:47:04.012Z,99.99
2022-08-19T04:48:26.295Z,99.99
2022-08-19T04:49:10.408Z,99.99
2022-08-19T04:50:04.945Z,99.99
2022-08-19T04:51:04.094Z,99.99
2022-08-19T04:52:03.932Z,99.99
2022-08-19T04:53:03.921Z,99.99
2022-08-19T04:54:03.907Z,99.99
2022-08-19T04:55:03.885Z,99.99
2022-08-19T04:56:03.886Z,99.99
2022-08-19T04:57:03.865Z,99.99
2022-08-19T04:58:03.865Z,99.99
2022-08-19T04:59:03.844Z,99.99
2022-08-19T05:00:03.846Z,99.99
2022-08-19T05:01:03.888Z,99.99
2022-08-19T05:02:03.813Z,99.99
2022-08-19T05:03:03.809Z,99.99
2022-08-19T05:04:03.800Z,99.99
2022-08-19T05:05:03.774Z,99.99
2022-08-19T05:06:03.787Z,99.99
2022-08-19T05:07:03.761Z,99.99
2022-08-19T05:08:03.745Z,99.99
2022-08-19T05:09:03.725Z,99.99
2022-08-19T05:10:03.737Z,99.99
2022-08-19T05:11:03.705Z,99.99
2022-08-19T05:12:03.697Z,99.99
2022-08-19T05:13:03.697Z,99.99
2022-08-19T05:14:03.690Z,99.99
2022-08-19T05:15:03.697Z,99.99
2022-08-19T05:16:03.657Z,99.99
2022-08-19T05:17:26.066Z,99.99
2022-08-19T05:18:04.649Z,99.99
2022-08-19T05:19:03.630Z,99.99
2022-08-19T05:20:03.631Z,99.99
2022-08-19T05:21:03.589Z,99.99
2022-08-19T05:22:03.590Z,99.99
2022-08-19T05:23:09.558Z,99.99
2022-08-19T05:24:04.577Z,99.99
2022-08-19T05:25:12.701Z,99.99
2022-08-19T05:26:04.542Z,99.99
2022-08-19T05:27:03.539Z,99.99
2022-08-19T05:28:03.590Z,99.99
2022-08-19T05:29:03.561Z,99.99
2022-08-19T05:30:03.550Z,99.99
2022-08-19T05:31:03.555Z,99.99
2022-08-19T05:32:03.525Z,99.99
2022-08-19T05:33:03.590Z,99.99
2022-08-19T05:34:03.554Z,99.99
2022-08-19T05:35:03.514Z,99.99
2022-08-19T05:36:04.131Z,99.99
2022-08-19T05:37:03.601Z,99.99
2022-08-19T05:38:03.590Z,99.99
2022-08-19T05:39:03.561Z,99.99
2022-08-19T05:40:03.669Z,99.99
2022-08-19T05:41:03.643Z,99.99
2022-08-19T05:42:03.682Z,99.99
2022-08-19T05:43:03.486Z,99.99
2022-08-19T05:44:03.496Z,99.99
2022-08-19T05:45:03.364Z,99.99
2022-08-19T05:46:03.422Z,99.99
2022-08-19T05:47:03.301Z,99.99
2022-08-19T05:48:03.566Z,99.99
2022-08-19T05:49:03.968Z,99.99
2022-08-19T05:50:04.899Z,99.99
2022-08-19T05:51:03.267Z,99.99
2022-08-19T05:52:03.300Z,99.99
2022-08-19T05:53:03.265Z,99.99
2022-08-19T05:54:03.232Z,99.99
2022-08-19T05:55:03.225Z,99.99
2022-08-19T05:56:03.224Z,99.99
2022-08-19T05:57:03.204Z,99.99
2022-08-19T05:58:03.228Z,99.99
2022-08-19T05:59:03.164Z,99.99
2022-08-19T06:00:03.184Z,99.99
2022-08-19T06:01:03.172Z,99.99
2022-08-19T06:02:03.152Z,99.99
2022-08-19T06:03:03.298Z,99.99
2022-08-19T06:04:04.136Z,99.99
2022-08-19T06:05:03.156Z,99.99
2022-08-19T06:06:03.138Z,99.99
2022-08-19T06:07:12.254Z,99.99
2022-08-19T06:08:04.077Z,99.99
2022-08-19T06:09:03.896Z,99.99
2022-08-19T06:10:03.084Z,99.99
2022-08-19T06:11:03.128Z,99.99
2022-08-19T06:12:03.216Z,99.99
2022-08-19T06:13:03.076Z,99.99
2022-08-19T06:14:03.228Z,99.99
2022-08-19T06:15:03.080Z,99.99
2022-08-19T06:16:03.107Z,99.99
2022-08-19T06:17:06.869Z,99.99
2022-08-19T06:18:03.168Z,99.99
2022-08-19T06:19:03.120Z,99.99
2022-08-19T06:20:03.144Z,99.99
2022-08-19T06:21:03.172Z,99.99
2022-08-19T06:22:03.177Z,99.99
2022-08-19T06:23:03.353Z,99.99
2022-08-19T06:24:03.055Z,99.99
2022-08-19T06:25:03.129Z,99.99
2022-08-19T06:26:02.870Z,99.99
2022-08-19T06:27:02.883Z,99.99
2022-08-19T06:28:18.579Z,99.99
2022-08-19T06:29:04.080Z,99.99
2022-08-19T06:30:02.828Z,99.99
2022-08-19T06:31:02.813Z,99.99
2022-08-19T06:32:02.846Z,99.99
2022-08-19T06:33:02.792Z,99.99
2022-08-19T06:34:02.781Z,99.99
2022-08-19T06:35:02.770Z,99.99
2022-08-19T06:36:02.812Z,99.99
2022-08-19T06:37:02.773Z,99.99
2022-08-19T06:38:02.742Z,99.99
2022-08-19T06:39:02.721Z,99.99
2022-08-19T06:40:02.909Z,99.99
2022-08-19T06:41:02.722Z,99.99
2022-08-19T06:42:03.968Z,99.99
2022-08-19T06:43:02.681Z,99.99
2022-08-19T06:44:02.681Z,99.99
2022-08-19T06:45:02.666Z,99.99
2022-08-19T06:46:03.661Z,99.99
2022-08-19T06:47:02.650Z,99.95
2022-08-19T06:48:03.645Z,99.30
2022-08-19T06:49:02.616Z,99.20
2022-08-19T06:50:02.893Z,99.20
2022-08-19T06:51:02.595Z,98.80
2022-08-19T06:52:03.605Z,98.80
2022-08-19T06:53:04.376Z,98.75
2022-08-19T06:54:02.567Z,98.55
2022-08-19T06:55:06.197Z,98.55
2022-08-19T06:56:02.544Z,98.25
2022-08-19T06:57:02.532Z,98.45
2022-08-19T06:58:02.535Z,98.15
2022-08-19T06:59:09.580Z,97.75
2022-08-19T07:00:02.607Z,97.34
2022-08-19T07:01:05.664Z,97.30
2022-08-19T07:02:03.479Z,97.40
2022-08-19T07:03:06.206Z,97.50
2022-08-19T07:04:03.451Z,97.20
2022-08-19T07:05:02.451Z,97.20
2022-08-19T07:06:02.452Z,97.40
2022-08-19T07:07:15.174Z,96.89
2022-08-19T07:08:05.102Z,96.45
2022-08-19T07:09:02.464Z,96.25
2022-08-19T07:10:04.862Z,95.95
2022-08-19T07:11:02.351Z,96.25
2022-08-19T07:12:03.368Z,95.80
2022-08-19T07:13:02.343Z,95.40
2022-08-19T07:14:02.350Z,95.30
2022-08-19T07:15:02.324Z,94.85
2022-08-19T07:16:02.311Z,94.75
2022-08-19T07:17:02.311Z,94.45
2022-08-19T07:18:02.295Z,94.75
2022-08-19T07:19:11.614Z,93.40
2022-08-19T07:20:05.044Z,94.31
2022-08-19T07:21:02.263Z,94.10
2022-08-19T07:22:02.255Z,93.10
2022-08-19T07:23:02.247Z,93.40
2022-08-19T07:24:05.421Z,93.55
2022-08-19T07:25:02.235Z,92.76
2022-08-19T07:27:02.219Z,91.75
2022-08-19T07:28:02.195Z,91.41
2022-08-19T07:29:02.176Z,91.91
2022-08-19T07:30:02.195Z,92.41
2022-08-19T07:31:02.195Z,91.51
2022-08-19T07:32:02.127Z,90.91
2022-08-19T07:33:03.582Z,90.81
2022-08-19T07:34:02.116Z,90.77
2022-08-19T07:35:02.147Z,91.47
2022-08-19T07:36:02.088Z,89.86
2022-08-19T07:37:02.095Z,90.66
2022-08-19T07:38:02.080Z,90.36
2022-08-19T07:39:02.055Z,89.62
2022-08-19T07:40:02.285Z,89.02
2022-08-19T07:41:02.035Z,89.22
2022-08-19T07:42:02.027Z,88.92
2022-08-19T07:43:02.027Z,89.12
2022-08-19T07:44:02.000Z,89.02
2022-08-19T07:45:02.027Z,88.57
2022-08-19T07:46:02.022Z,88.48
2022-08-19T07:47:01.968Z,88.18
2022-08-19T07:48:02.172Z,88.07
2022-08-19T07:49:01.965Z,88.28
2022-08-19T07:50:01.939Z,87.87
2022-08-19T07:51:01.927Z,87.87
2022-08-19T07:52:01.907Z,87.77
2022-08-19T07:53:01.919Z,87.63
2022-08-19T07:54:01.892Z,87.34
2022-08-19T07:55:02.060Z,87.13
2022-08-19T07:56:01.861Z,86.93
2022-08-19T07:57:01.872Z,87.63
2022-08-19T07:58:01.859Z,87.23
2022-08-19T07:59:01.852Z,87.43
2022-08-19T08:00:01.842Z,86.83
2022-08-19T08:01:01.812Z,86.73
2022-08-19T08:02:01.856Z,86.87
2022-08-19T08:03:01.796Z,86.68
2022-08-19T08:04:01.792Z,86.47
2022-08-19T08:05:01.784Z,86.07
2022-08-19T08:06:01.765Z,86.18
2022-08-19T08:07:01.752Z,86.18
2022-08-19T08:08:01.736Z,86.47
2022-08-19T08:09:01.745Z,86.77
2022-08-19T08:10:03.373Z,85.77
2022-08-19T08:11:01.712Z,86.18
2022-08-19T08:12:05.073Z,86.18
2022-08-19T08:13:09.538Z,86.47
2022-08-19T08:14:04.471Z,86.07
2022-08-19T08:15:01.683Z,86.63
2022-08-19T08:16:01.644Z,85.63
2022-08-19T08:17:01.646Z,85.57
2022-08-19T08:18:01.797Z,86.07
2022-08-19T08:19:01.668Z,85.87
2022-08-19T08:20:01.617Z,85.93
2022-08-19T08:21:01.636Z,86.13
2022-08-19T08:22:01.597Z,86.13
2022-08-19T08:23:01.577Z,85.63
2022-08-19T08:24:01.580Z,85.83
2022-08-19T08:25:01.569Z,85.63
2022-08-19T08:26:01.549Z,85.83
2022-08-19T08:27:01.549Z,85.13
2022-08-19T08:28:01.533Z,85.73
2022-08-19T08:29:01.530Z,85.83
2022-08-19T08:30:02.873Z,85.13
2022-08-19T08:31:01.509Z,85.03
2022-08-19T08:32:01.477Z,84.93
2022-08-19T08:33:02.601Z,84.73
2022-08-19T08:34:01.470Z,85.03
2022-08-19T08:35:01.469Z,85.23
2022-08-19T08:36:01.458Z,85.33
2022-08-19T08:37:01.429Z,85.13
2022-08-19T08:38:01.617Z,85.23
2022-08-19T08:39:01.424Z,85.03
2022-08-19T08:40:01.476Z,84.83
2022-08-19T08:41:01.430Z,84.93
2022-08-19T08:42:01.362Z,85.99
2022-08-19T08:44:01.341Z,84.39
2022-08-19T08:45:01.345Z,84.55
2022-08-19T08:46:01.330Z,83.55
2022-08-19T08:47:01.343Z,83.15
2022-08-19T08:48:01.322Z,83.05
2022-08-19T08:49:01.289Z,84.31
2022-08-19T08:50:01.293Z,82.61
2022-08-19T08:51:01.274Z,82.61
2022-08-19T08:52:01.254Z,82.41
2022-08-19T08:53:01.262Z,82.31
2022-08-19T08:54:01.235Z,82.61
2022-08-19T08:55:01.264Z,82.17
2022-08-19T08:56:01.638Z,81.18
2022-08-19T08:57:01.222Z,80.58
2022-08-19T08:58:01.193Z,80.77
2022-08-19T08:59:01.229Z,80.68
2022-08-19T09:00:01.173Z,80.68
2022-08-19T09:01:01.173Z,80.34
2022-08-19T09:02:01.248Z,79.94
2022-08-19T09:03:01.154Z,80.14
2022-08-19T09:04:02.690Z,79.70
2022-08-19T09:05:02.311Z,78.30
2022-08-19T09:06:01.113Z,78.20
2022-08-19T09:07:01.094Z,78.80
2022-08-19T09:08:02.086Z,79.60
2022-08-19T09:09:01.086Z,79.16
2022-08-19T09:10:01.067Z,78.17
2022-08-19T09:11:01.078Z,78.23
2022-08-19T09:12:01.038Z,77.83
2022-08-19T09:13:01.027Z,77.83
2022-08-19T09:14:01.025Z,76.43
2022-08-19T09:15:01.026Z,77.37
2022-08-19T09:16:01.173Z,77.91
2022-08-19T09:17:00.990Z,78.00
2022-08-19T09:18:01.075Z,77.91
2022-08-19T09:19:00.972Z,78.20
2022-08-19T09:20:01.659Z,78.30
2022-08-19T09:21:00.998Z,77.97
2022-08-19T09:22:00.933Z,76.87
2022-08-19T09:23:00.910Z,76.87
2022-08-19T09:24:00.912Z,78.83
2022-08-19T09:25:00.925Z,77.20
2022-08-19T09:26:00.899Z,76.60
2022-08-19T09:27:01.590Z,76.30
2022-08-19T09:28:02.433Z,73.51
2022-08-19T09:29:00.870Z,73.94
2022-08-19T09:30:00.854Z,74.44
2022-08-19T09:31:00.862Z,74.74
2022-08-19T09:32:00.837Z,75.01
2022-08-19T09:33:00.850Z,73.71
2022-08-19T09:34:00.802Z,74.01
2022-08-19T09:35:00.804Z,74.30
2022-08-19T09:36:00.875Z,74.84
2022-08-19T09:37:00.782Z,76.60
2022-08-19T09:38:00.937Z,75.70
2022-08-19T09:39:00.752Z,76.56
2022-08-19T09:40:00.872Z,74.87
2022-08-19T09:41:00.754Z,73.57
2022-08-19T09:42:00.722Z,73.21
2022-08-19T09:43:00.734Z,72.61
2022-08-19T09:44:00.688Z,72.41
2022-08-19T09:45:00.692Z,72.31
2022-08-19T09:46:00.715Z,73.01
2022-08-19T09:47:00.669Z,73.18
2022-08-19T09:48:00.643Z,72.44
2022-08-19T09:49:03.077Z,70.92
2022-08-19T09:50:01.648Z,70.06
2022-08-19T09:51:00.622Z,70.95
2022-08-19T09:52:00.608Z,71.05
2022-08-19T09:53:00.608Z,71.65
2022-08-19T09:54:00.576Z,71.84
2022-08-19T09:55:00.699Z,72.14
2022-08-19T09:56:01.556Z,71.84
2022-08-19T09:57:00.556Z,70.49
2022-08-19T09:58:00.937Z,70.09
2022-08-19T09:59:00.530Z,70.62
2022-08-19T10:00:00.541Z,70.72
2022-08-19T10:01:00.542Z,69.79
2022-08-19T10:02:03.633Z,69.09
2022-08-19T10:03:01.492Z,68.96
2022-08-19T10:04:00.491Z,69.03
2022-08-19T10:05:00.756Z,68.30
2022-08-19T10:06:00.459Z,66.97
2022-08-19T10:07:00.459Z,66.67
2022-08-19T10:08:00.472Z,69.26
2022-08-19T10:09:00.420Z,66.44
2022-08-19T10:10:00.443Z,66.55
2022-08-19T10:11:27.174Z,66.15
2022-08-19T10:12:01.386Z,66.25
2022-08-19T10:13:00.391Z,66.28
2022-08-19T10:14:00.383Z,66.97
2022-08-19T10:15:00.362Z,67.27
2022-08-19T10:16:00.343Z,66.58
2022-08-19T10:17:00.346Z,66.85
2022-08-19T10:18:00.326Z,66.67
2022-08-19T10:19:00.326Z,67.07
2022-08-19T10:20:00.304Z,66.67
2022-08-19T10:21:00.293Z,66.38
2022-08-19T10:22:00.695Z,66.08
2022-08-19T10:23:00.285Z,66.61
2022-08-19T10:24:00.246Z,67.27
2022-08-19T10:25:00.307Z,67.67
2022-08-19T10:26:00.245Z,66.64
2022-08-19T10:27:00.224Z,67.44
2022-08-19T10:28:00.217Z,67.11
2022-08-19T10:29:00.470Z,66.81
2022-08-19T10:30:00.186Z,64.76
2022-08-19T10:31:00.188Z,65.55
2022-08-19T10:32:02.464Z,65.75
2022-08-19T10:33:00.160Z,65.75
2022-08-19T10:34:00.139Z,65.35
2022-08-19T10:35:00.176Z,66.74
2022-08-19T10:36:00.124Z,65.65
2022-08-19T10:37:00.947Z,64.95
2022-08-19T10:38:01.851Z,65.25
2022-08-19T10:39:00.100Z,65.25
2022-08-19T10:40:00.189Z,65.48
2022-08-19T10:41:00.079Z,66.64
2022-08-19T10:42:00.063Z,64.56
2022-08-19T10:43:00.073Z,64.53
2022-08-19T10:44:04.218Z,65.52
2022-08-19T10:45:00.061Z,65.19
2022-08-19T10:46:00.039Z,63.87
2022-08-19T10:47:00.153Z,63.77
2022-08-19T10:48:00.003Z,65.03
2022-08-19T10:49:00.018Z,62.95
2022-08-19T10:50:00.024Z,63.34
2022-08-19T10:50:59.972Z,62.55
2022-08-19T10:51:59.964Z,63.05
2022-08-19T10:52:59.944Z,63.37
2022-08-19T10:53:59.934Z,63.57
2022-08-19T10:54:59.946Z,62.68
2022-08-19T10:56:00.916Z,62.81
2022-08-19T10:56:59.896Z,63.40
2022-08-19T10:58:02.505Z,63.01
2022-08-19T10:58:59.892Z,64.10
2022-08-19T10:59:59.877Z,64.17
2022-08-19T11:00:59.925Z,63.37
2022-08-19T11:01:59.856Z,63.15
2022-08-19T11:02:59.837Z,63.74
2022-08-19T11:03:59.862Z,62.15
2022-08-19T11:05:04.888Z,63.37
2022-08-19T11:06:00.828Z,63.90
2022-08-19T11:07:00.180Z,64.53
2022-08-19T11:07:59.852Z,64.92
2022-08-19T11:08:59.768Z,65.25
2022-08-19T11:09:59.777Z,65.75
2022-08-19T11:10:59.760Z,65.85
2022-08-19T11:11:59.780Z,66.02
2022-08-19T11:12:59.728Z,66.88
2022-08-19T11:13:59.713Z,66.18
2022-08-19T11:14:59.740Z,65.59
2022-08-19T11:16:02.838Z,64.89
2022-08-19T11:17:00.705Z,64.50
2022-08-19T11:18:00.560Z,65.12
2022-08-19T11:18:59.669Z,65.72
2022-08-19T11:19:59.652Z,66.64
2022-08-19T11:20:59.660Z,66.25
2022-08-19T11:22:00.188Z,66.44
2022-08-19T11:22:59.641Z,66.05
2022-08-19T11:23:59.620Z,65.85
2022-08-19T11:24:59.621Z,65.75
2022-08-19T11:25:59.620Z,64.86
2022-08-19T11:26:59.687Z,64.03
2022-08-19T11:27:59.625Z,62.54
2022-08-19T11:28:59.572Z,62.94
2022-08-19T11:29:59.609Z,63.07
2022-08-19T11:30:59.552Z,63.83
2022-08-19T11:31:59.605Z,65.42
2022-08-19T11:32:59.516Z,65.92
2022-08-19T11:33:59.576Z,65.32
2022-08-19T11:34:59.578Z,65.59
2022-08-19T11:35:59.504Z,65.09
2022-08-19T11:36:59.484Z,65.69
2022-08-19T11:37:59.465Z,66.78
2022-08-19T11:38:59.445Z,65.66
2022-08-19T11:39:59.472Z,62.78
2022-08-19T11:40:59.445Z,61.99
2022-08-19T11:41:59.425Z,61.49
2022-08-19T11:42:59.397Z,60.99
2022-08-19T11:43:59.401Z,61.39
2022-08-19T11:44:59.455Z,61.56
2022-08-19T11:45:59.377Z,60.17
2022-08-19T11:46:59.361Z,60.47
2022-08-19T11:48:00.357Z,58.95
2022-08-19T11:48:59.350Z,59.55
2022-08-19T11:49:59.330Z,59.94
2022-08-19T11:50:59.331Z,61.53
2022-08-19T11:51:59.307Z,60.61
2022-08-19T11:52:59.310Z,59.49
2022-08-19T11:53:59.300Z,60.28
2022-08-19T11:54:59.295Z,59.09
2022-08-19T11:55:59.320Z,58.43
2022-08-19T11:56:59.260Z,58.92
2022-08-19T11:57:59.248Z,59.55
2022-08-19T11:58:59.223Z,59.35
2022-08-19T11:59:59.234Z,60.07
2022-08-19T12:00:59.224Z,60.44
2022-08-19T12:01:59.473Z,60.64
2022-08-19T12:02:59.195Z,59.45
2022-08-19T12:03:59.300Z,59.92
2022-08-19T12:04:59.153Z,58.63
2022-08-19T12:05:59.175Z,60.41
2022-08-19T12:06:59.156Z,58.92
2022-08-19T12:07:59.153Z,58.43
2022-08-19T12:08:59.123Z,60.02
2022-08-19T12:09:59.115Z,59.45
2022-08-19T12:10:59.096Z,59.65
2022-08-19T12:11:59.144Z,59.48
2022-08-19T12:12:59.177Z,60.27
2022-08-19T12:13:59.101Z,60.67
2022-08-19T12:14:59.097Z,61.76
2022-08-19T12:15:59.067Z,61.56
2022-08-19T12:16:59.064Z,61.96
2022-08-19T12:17:59.047Z,60.86
2022-08-19T12:18:59.030Z,60.37
2022-08-19T12:19:59.022Z,60.67
2022-08-19T12:20:58.986Z,60.96
2022-08-19T12:21:59.015Z,60.80
2022-08-19T12:22:58.970Z,60.99
2022-08-19T12:23:58.962Z,61.59
2022-08-19T12:24:58.958Z,61.39
2022-08-19T12:25:58.970Z,61.29
2022-08-19T12:27:00.827Z,61.19
2022-08-19T12:27:59.359Z,60.50
2022-08-19T12:28:58.899Z,60.30
2022-08-19T12:29:58.904Z,59.58
2022-08-19T12:30:58.911Z,57.97
2022-08-19T12:31:58.904Z,57.54
2022-08-19T12:32:58.871Z,57.64
2022-08-19T12:33:58.864Z,57.64
2022-08-19T12:34:58.844Z,58.23
2022-08-19T12:35:58.844Z,58.90
2022-08-19T12:36:58.831Z,58.01
2022-08-19T12:37:59.246Z,56.72
2022-08-19T12:38:58.840Z,57.09
2022-08-19T12:39:58.845Z,56.57
2022-08-19T12:41:00.397Z,55.47
2022-08-19T12:41:58.784Z,55.68
2022-08-19T12:42:58.764Z,55.55
2022-08-19T12:43:58.764Z,55.65
2022-08-19T12:44:58.736Z,54.83
2022-08-19T12:46:53.898Z,54.24
2022-08-19T12:47:54.809Z,55.03
2022-08-19T12:48:55.240Z,54.83
2022-08-19T12:49:54.712Z,54.83
2022-08-19T12:50:51.206Z,54.11
2022-08-19T12:51:51.464Z,53.42
2022-08-19T12:52:51.192Z,52.26
2022-08-19T12:53:51.212Z,51.67
2022-08-19T12:54:54.538Z,52.95